Carmen, Idaho
Current Conditions -  °F | °C
As of 7:15 PM on Sunday 21 Dec 2014 (Local Time) from KSMN Reporting Station
Broken Clouds Broken Clouds  
Wind Chill: 36°   Ceiling: 12000
Heat Index: 36°   Visibility: 10mi
Dew Point: 28°   Wind: 3mph
Humidity: 75%   Direction: 150°SSE
Pressure: 29.89"   Gusts: NA
Location:  45.24°N, 113.89°W
Report Text: KSMN 220215Z AUTO 15003KT 10SM FEW043 SCT050 BKN120 02/M02 A2989 RMK AO1
Loading
Personal Weather Stations






























Interactive Weather Map New forecast layout! Learn more

10-Day Weather Forecast

Advertisements
Track Severe Weather on mobile